createdAt,value
2024-04-18T00:00:37.832Z,101074.09
2024-04-18T00:05:42.878Z,101077.94
2024-04-18T00:10:53.380Z,101072.97
2024-04-18T00:16:15.063Z,101075.50
2024-04-18T00:21:20.116Z,101076.63
2024-04-18T00:26:36.931Z,101075.00
2024-04-18T00:31:41.940Z,101085.84
2024-04-18T00:36:46.969Z,101083.53
2024-04-18T00:42:04.400Z,101085.09
2024-04-18T00:47:09.681Z,101087.56
2024-04-18T00:52:20.341Z,101085.78
2024-04-18T00:57:35.547Z,101081.50
2024-04-18T01:02:44.638Z,101084.69
2024-04-18T01:08:08.283Z,101089.13
2024-04-18T01:13:41.824Z,101089.41
2024-04-18T01:19:00.009Z,101084.09
2024-04-18T01:24:05.050Z,101089.47
2024-04-18T01:29:12.597Z,101102.00
2024-04-18T01:34:37.645Z,101104.03
2024-04-18T01:39:54.946Z,101098.91
2024-04-18T01:45:02.570Z,101097.69
2024-04-18T01:50:16.565Z,101104.41
2024-04-18T01:55:21.560Z,101106.84
2024-04-18T02:00:29.433Z,101106.06
2024-04-18T02:05:34.497Z,101108.97
2024-04-18T02:10:54.984Z,101119.53
2024-04-18T02:16:20.760Z,101113.28
2024-04-18T02:21:45.760Z,101117.56
2024-04-18T02:27:09.951Z,101116.47
2024-04-18T02:32:17.541Z,101118.16
2024-04-18T02:37:22.572Z,101124.91
2024-04-18T02:42:28.014Z,101128.84
2024-04-18T02:47:38.832Z,101128.28
2024-04-18T02:52:43.853Z,101128.75
2024-04-18T02:57:54.826Z,101132.25
2024-04-18T03:03:02.402Z,101130.47
2024-04-18T03:08:08.165Z,101134.91
2024-04-18T03:13:31.220Z,101139.50
2024-04-18T03:18:38.815Z,101141.78
2024-04-18T03:23:53.811Z,101148.91
2024-04-18T03:29:17.620Z,101143.28
2024-04-18T03:34:37.741Z,101141.91
2024-04-18T03:39:42.762Z,101153.03
2024-04-18T03:44:48.305Z,101149.72
2024-04-18T03:49:56.022Z,101156.88
2024-04-18T03:55:15.369Z,101150.16
2024-04-18T04:00:27.904Z,101151.97
2024-04-18T04:05:35.608Z,101154.72
2024-04-18T04:10:40.640Z,101161.56
2024-04-18T04:15:45.750Z,101163.41
2024-04-18T04:21:13.380Z,101172.88
2024-04-18T04:26:18.773Z,101167.69
2024-04-18T04:31:23.741Z,101176.66
2024-04-18T04:36:31.323Z,101177.41
2024-04-18T04:41:36.299Z,101188.41
2024-04-18T04:46:41.270Z,101189.16
2024-04-18T04:51:57.733Z,101201.94
2024-04-18T04:57:18.008Z,101199.50
2024-04-18T05:02:23.022Z,101203.31
2024-04-18T05:07:32.189Z,101196.31
2024-04-18T05:13:02.130Z,101199.03
2024-04-18T05:18:13.374Z,101210.00
2024-04-18T05:23:20.972Z,101219.13
2024-04-18T05:28:31.762Z,101227.19
2024-04-18T05:33:37.844Z,101219.53
2024-04-18T05:38:45.510Z,101233.03
2024-04-18T05:43:50.435Z,101238.22
2024-04-18T05:48:55.519Z,101236.09
2024-04-18T05:54:03.143Z,101236.03
2024-04-18T05:59:08.113Z,101246.31
2024-04-18T06:04:13.156Z,101248.72
2024-04-18T06:09:40.694Z,101239.47
2024-04-18T06:14:45.943Z,101243.03
2024-04-18T06:19:53.002Z,101248.25
2024-04-18T06:25:12.437Z,101258.25
2024-04-18T06:30:17.708Z,101256.53
2024-04-18T06:35:22.781Z,101252.75
2024-04-18T06:40:30.333Z,101248.31
2024-04-18T06:45:35.588Z,101246.94
2024-04-18T06:50:40.899Z,101253.91
2024-04-18T06:55:48.735Z,101251.38
2024-04-18T07:00:53.807Z,101250.72
2024-04-18T07:05:59.889Z,101252.81
2024-04-18T07:11:07.533Z,101260.16
2024-04-18T07:16:12.524Z,101256.03
2024-04-18T07:21:32.372Z,101264.34
2024-04-18T07:26:58.678Z,101266.88
2024-04-18T07:32:04.000Z,101264.88
2024-04-18T07:37:08.971Z,101263.22
2024-04-18T07:42:17.598Z,101264.78
2024-04-18T07:47:25.049Z,101266.69
2024-04-18T07:52:30.179Z,101272.22
2024-04-18T07:57:38.424Z,101272.69
2024-04-18T08:02:46.495Z,101271.53
2024-04-18T08:07:54.592Z,101271.06
2024-04-18T08:13:07.748Z,101274.09
2024-04-18T08:18:17.554Z,101272.44
2024-04-18T08:23:23.206Z,101274.97
2024-04-18T08:28:30.786Z,101274.75
2024-04-18T08:33:35.774Z,101268.81
2024-04-18T08:38:40.764Z,101273.59
2024-04-18T08:43:52.202Z,101269.56
2024-04-18T08:48:59.014Z,101266.84
2024-04-18T08:54:04.097Z,101260.06
2024-04-18T08:59:13.887Z,101260.56
2024-04-18T09:04:18.951Z,101262.69
2024-04-18T09:09:27.286Z,101267.69
2024-04-18T09:14:36.312Z,101260.28
2024-04-18T09:19:41.308Z,101255.09
2024-04-18T09:24:47.022Z,101256.28
2024-04-18T09:29:54.622Z,101245.94
2024-04-18T09:35:01.632Z,101252.13
2024-04-18T09:40:08.984Z,101246.59
2024-04-18T09:45:20.847Z,101259.63
2024-04-18T09:50:26.523Z,101256.91
2024-04-18T09:55:33.007Z,101244.66
2024-04-18T10:00:41.951Z,101235.50
2024-04-18T10:05:51.165Z,101246.78
2024-04-18T10:10:57.019Z,101248.38
2024-04-18T10:16:12.822Z,101239.59
2024-04-18T10:21:25.414Z,101243.06
2024-04-18T10:26:40.466Z,101233.28
2024-04-18T10:31:48.089Z,101230.38
2024-04-18T10:36:53.336Z,101225.34
2024-04-18T10:42:02.258Z,101220.06
2024-04-18T10:47:12.104Z,101223.75
2024-04-18T10:52:19.135Z,101211.69
2024-04-18T10:57:24.205Z,101221.41
2024-04-18T11:02:33.843Z,101218.28
2024-04-18T11:07:39.126Z,101205.69
2024-04-18T11:12:44.345Z,101211.78
2024-04-18T11:17:52.081Z,101206.56
2024-04-18T11:23:05.520Z,101207.84
2024-04-18T11:28:18.110Z,101206.19
2024-04-18T11:33:25.919Z,101200.19
2024-04-18T11:38:32.811Z,101204.09
2024-04-18T11:43:39.133Z,101198.88
2024-04-18T11:48:46.759Z,101191.00
2024-04-18T11:53:53.863Z,101191.84
2024-04-18T11:59:15.083Z,101194.66
2024-04-18T12:04:22.947Z,101180.94
2024-04-18T12:09:28.102Z,101183.38
2024-04-18T12:14:36.798Z,101184.16
2024-04-18T12:19:45.078Z,101186.97
2024-04-18T12:25:10.590Z,101191.00
2024-04-18T12:30:15.576Z,101186.81
2024-04-18T12:35:23.187Z,101184.47
2024-04-18T12:40:28.716Z,101183.50
2024-04-18T12:45:48.615Z,101185.16
2024-04-18T12:50:56.239Z,101181.13
2024-04-18T12:56:19.343Z,101174.72
2024-04-18T13:01:24.427Z,101172.47
2024-04-18T13:06:32.423Z,101169.09
2024-04-18T13:11:57.460Z,101159.34
2024-04-18T13:17:02.535Z,101163.19
2024-04-18T13:22:28.574Z,101153.47
2024-04-18T13:27:33.660Z,101146.84
2024-04-18T13:32:39.706Z,101146.78
2024-04-18T13:37:47.357Z,101138.16
2024-04-18T13:42:54.917Z,101130.97
2024-04-18T13:48:10.090Z,101127.00
2024-04-18T13:53:23.859Z,101117.94
2024-04-18T13:58:28.828Z,101110.19
2024-04-18T14:03:34.465Z,101105.44
2024-04-18T14:08:45.630Z,101091.72
2024-04-18T14:14:11.081Z,101083.69
2024-04-18T14:19:36.114Z,101088.72
2024-04-18T14:24:46.281Z,101080.56
2024-04-18T14:30:11.052Z,101080.09
2024-04-18T14:35:16.059Z,101064.94
2024-04-18T14:40:50.148Z,101068.53
2024-04-18T14:46:02.662Z,101072.72
2024-04-18T14:51:23.016Z,101060.75
2024-04-18T14:56:30.597Z,101071.69
2024-04-18T15:01:38.169Z,101063.13
2024-04-18T15:06:43.131Z,101068.84
2024-04-18T15:11:51.123Z,101063.38
2024-04-18T15:16:56.072Z,101058.38
2024-04-18T15:22:01.171Z,101064.56
2024-04-18T15:27:21.604Z,101069.16
2024-04-18T15:32:27.029Z,101061.91
2024-04-18T15:38:08.735Z,101059.31
2024-04-18T15:43:16.351Z,101063.53
2024-04-18T15:48:21.483Z,101068.28
2024-04-18T15:53:32.282Z,101060.81
2024-04-18T15:58:48.870Z,101062.16
2024-04-18T16:03:53.891Z,101068.44
2024-04-18T16:09:07.902Z,101081.13
2024-04-18T16:14:21.866Z,101105.72
2024-04-18T16:19:28.379Z,101114.03
2024-04-18T16:24:43.805Z,101116.59
2024-04-18T16:29:51.445Z,101116.00
2024-04-18T16:35:16.464Z,101114.06
2024-04-18T16:40:22.808Z,101114.91
2024-04-18T16:45:40.330Z,101111.53
2024-04-18T16:50:45.635Z,101112.66
2024-04-18T16:55:50.666Z,101123.50
2024-04-18T17:01:00.268Z,101137.19
2024-04-18T17:06:06.728Z,101149.69
2024-04-18T17:11:11.877Z,101145.66
2024-04-18T17:16:38.077Z,101133.94
2024-04-18T17:21:58.155Z,101125.53
2024-04-18T17:27:17.145Z,101126.78
2024-04-18T17:32:24.913Z,101121.44
2024-04-18T17:37:29.923Z,101118.84
2024-04-18T17:42:35.064Z,101117.16
2024-04-18T17:47:46.622Z,101114.31
2024-04-18T17:52:51.798Z,101117.03
2024-04-18T17:57:56.734Z,101113.41
2024-04-18T18:03:04.419Z,101110.59
2024-04-18T18:08:16.663Z,101105.47
2024-04-18T18:13:21.650Z,101097.50
2024-04-18T18:18:29.448Z,101104.63
2024-04-18T18:23:34.454Z,101103.34
2024-04-18T18:28:39.482Z,101104.53
2024-04-18T18:33:48.493Z,101108.16
2024-04-18T18:38:53.476Z,101108.34
2024-04-18T18:43:58.448Z,101107.84
2024-04-18T18:49:06.440Z,101103.88
2024-04-18T18:54:12.127Z,101108.72
2024-04-18T18:59:17.171Z,101115.44
2024-04-18T19:04:24.920Z,101112.31
2024-04-18T19:09:32.477Z,101106.31
2024-04-18T19:14:37.646Z,101106.59
2024-04-18T19:19:47.950Z,101100.84
2024-04-18T19:24:53.111Z,101107.44
2024-04-18T19:29:58.886Z,101098.50
2024-04-18T19:35:07.059Z,101101.69
2024-04-18T19:40:12.948Z,101102.16
2024-04-18T19:45:38.391Z,101092.84
2024-04-18T19:50:46.014Z,101093.56
2024-04-18T19:56:02.993Z,101086.44
2024-04-18T20:01:08.016Z,101086.00
2024-04-18T20:06:16.372Z,101075.78
2024-04-18T20:11:30.572Z,101076.94
2024-04-18T20:16:35.697Z,101075.03
2024-04-18T20:21:52.634Z,101076.19
2024-04-18T20:26:57.679Z,101071.53
2024-04-18T20:32:22.786Z,101065.19
2024-04-18T20:37:31.256Z,101063.13
2024-04-18T20:42:36.311Z,101059.59
2024-04-18T20:47:41.679Z,101055.53
2024-04-18T20:52:49.349Z,101057.00
2024-04-18T20:57:54.375Z,101048.81
2024-04-18T21:03:00.502Z,101055.88
2024-04-18T21:08:08.694Z,101046.78
2024-04-18T21:13:14.148Z,101044.41
2024-04-18T21:18:19.308Z,101038.72
2024-04-18T21:23:27.198Z,101029.06
2024-04-18T21:28:32.256Z,101020.56
2024-04-18T21:33:37.418Z,101016.56
2024-04-18T21:38:54.294Z,101018.41
2024-04-18T21:44:06.139Z,101010.56
2024-04-18T21:49:11.222Z,101011.34
2024-04-18T21:54:18.940Z,100999.19
2024-04-18T21:59:24.053Z,101000.13
2024-04-18T22:04:29.178Z,100996.34
2024-04-18T22:09:36.879Z,100999.06
2024-04-18T22:14:41.929Z,100990.00
2024-04-18T22:19:47.053Z,100973.09
2024-04-18T22:24:54.737Z,100972.97
2024-04-18T22:29:59.813Z,100971.03
2024-04-18T22:35:04.844Z,100961.53
2024-04-18T22:40:14.319Z,100946.75
2024-04-18T22:45:21.466Z,100944.94
2024-04-18T22:50:26.598Z,100941.41
2024-04-18T22:55:34.219Z,100931.53
2024-04-18T23:00:40.196Z,100932.09
2024-04-18T23:05:45.623Z,100926.53
2024-04-18T23:10:53.322Z,100921.31
2024-04-18T23:15:58.386Z,100921.22
2024-04-18T23:21:03.438Z,100918.38
2024-04-18T23:26:14.531Z,100907.72
2024-04-18T23:31:19.583Z,100902.25
2024-04-18T23:36:24.654Z,100892.72
2024-04-18T23:41:32.267Z,100890.91
2024-04-18T23:46:37.556Z,100878.09
2024-04-18T23:51:42.830Z,100869.25
2024-04-18T23:56:50.511Z,100859.47
